VG21 weather

Irvington Marina Seaplane Base
Irvington, Virginia, United States

Public forecast

Using degrees Fahrenheit for public forecast. Weather courtesy of forecast.io.

METAR (pilot weather report)

Closest report is Middle Peninsula Regional Airport, 17.6 nm (32.6 km) WSW. Retrieved 2019/07/18 14:35 UTC (0 seconds ago):

KFYJ 181435Z AUTO 23010G14KT 10SM CLR 30/25 A2993 RMK AO1 T03010245

TAF (pilot weather forecast)

Closest forecast is Newport News Williamsburg International Airport, 31.7 nm (58.7 km) S. Retrieved 2019/07/18 12:22 UTC (2 hours ago):

TAF KPHF 181120Z 1812/1912 22012KT P6SM SCT200 FM181800 22011G17KT P6SM SCT060 FM182100 22010KT P6SM VCSH BKN070 FM190000 22007KT P6SM VCSH BKN100 FM190600 23008KT P6SM SCT200